Latest Weather Observations for Woomera

IDS60801

Issued at 2:51 pm CST Thursday 1 October 2020 (issued every 10 minutes, with the page automatically refreshed every 10 minutes)

About weather observations | Map of weather stations | Latest weather observations for SA | Other Formats
Station Details ID: 016001 Name: WOOMERA AERODROME Lat: -31.16 Lon: 136.81 Height: 166.6 m
Data from the previous 72 hours. | See also: Recent months at Woomera
Date/Time
CST
Temp
°C
App
Temp
°C
Dew
Point
°C
Rel
Hum
%
Delta-T
°C
Wind Press
QNH
hPa
Press
MSL
hPa
Rain since
9am
mm
Dir  Spd
km/h
Gust
km/h
Spd
kts
Gust
kts
01/02:30pm 29.6 24.7 6.9 24 12.2 NNW 22 35 12 19 1016.6 1016.2 -
01/02:00pm 28.8 23.6 7.4 26 11.6 NW 24 37 13 20 1016.8 1016.4 -
01/01:30pm 28.6 23.5 7.8 27 11.3 NW 24 35 13 19 1017.4 1016.9 -
01/01:00pm 28.3 22.5 8.1 28 11.1 NW 28 39 15 21 1017.5 1017.0 -
01/12:30pm 26.9 20.6 7.4 29 10.4 NNW 30 41 16 22 1017.8 1017.3 0.0
01/12:00pm 26.0 19.4 7.6 31 9.8 NNW 32 43 17 23 1018.2 1017.7 0.0
01/11:30am 25.7 19.1 7.8 32 9.6 NNW 32 41 17 22 1018.5 1018.0 0.0
01/11:00am 24.7 17.9 7.8 34 9.0 NNW 33 44 18 24 1018.9 1018.4 0.0
01/10:30am 24.2 18.1 8.2 36 8.6 N 30 37 16 20 1019.2 1018.7 0.0
01/10:00am 23.0 18.0 9.4 42 7.4 N 26 33 14 18 1019.5 1019.0 0.0
01/09:30am 21.8 17.9 9.3 45 6.7 N 20 26 11 14 1019.7 1019.2 0.0
01/09:00am 20.5 16.9 9.7 50 5.8 NNE 19 22 10 12 1019.7 1019.5 0.0
01/08:30am 18.5 16.9 10.3 59 4.4 ENE 9 15 5 8 1019.6 1019.4 0.0
01/08:00am 16.6 14.5 11.1 70 3.0 E 13 15 7 8 1019.3 1019.1 0.0
01/07:30am 15.3 13.1 10.9 75 2.4 ESE 13 15 7 8 1019.0 1018.8 0.0
01/07:00am 14.1 12.0 11.1 82 1.6 ESE 13 15 7 8 1018.8 1018.6 0.0
01/06:30am 13.2 11.0 10.7 85 1.3 ESE 13 15 7 8 1018.6 1018.4 0.0
01/06:00am 12.5 10.3 10.7 89 0.9 SE 13 13 7 7 1018.2 1017.9 0.0
01/05:30am 12.4 10.5 10.6 89 0.9 SE 11 13 6 7 1017.9 1017.6 0.0
01/05:00am 12.8 11.5 10.0 83 1.5 E 7 7 4 4 1017.7 1017.4 0.0
01/04:30am 13.5 12.4 10.5 82 1.6 SSE 7 7 4 4 1017.4 1017.1 0.0
01/04:00am 13.8 11.9 10.6 81 1.7 SSE 11 11 6 6 1017.1 1016.9 0.0
01/03:30am 14.1 12.3 10.9 81 1.7 SSE 11 15 6 8 1016.9 1016.7 0.0
01/03:00am 13.8 11.8 11.5 86 1.2 S 13 15 7 8 1016.8 1016.6 0.0
01/02:30am 13.9 12.3 11.6 86 1.2 SSW 11 15 6 8 1016.9 1016.7 0.0
01/02:00am 14.5 15.0 11.5 82 1.6 CALM 0 0 0 0 1016.7 1016.5 0.0
01/01:30am 14.6 15.1 11.6 82 1.6 CALM 0 0 0 0 1016.9 1016.7 0.0
01/01:00am 14.7 15.2 11.7 82 1.6 CALM 0 0 0 0 1017.1 1016.9 0.0
01/12:30am 15.0 15.5 11.6 80 1.8 CALM 0 0 0 0 1017.1 1016.9 0.0
01/12:00am 15.8 15.4 11.2 74 2.5 ESE 4 7 2 4 1017.1 1016.9 0.0
 
Date/Time
CST
Temp
°C
App
Temp
°C
Dew
Point
°C
Rel
Hum
%
Delta-T
°C
Wind Press
QNH
hPa
Press
MSL
hPa
Rain since
9am
mm
Dir  Spd
km/h
Gust
km/h
Spd
kts
Gust
kts
30/11:30pm 16.4 15.1 11.3 72 2.8 ESE 9 11 5 6 1017.4 1017.1 0.0
30/11:00pm 16.8 15.2 11.7 72 2.8 E 11 11 6 6 1017.2 1017.0 0.0
30/10:30pm 16.7 15.1 11.6 72 2.8 ESE 11 13 6 7 1017.1 1016.9 0.0
30/10:00pm 17.0 15.8 11.5 70 3.0 E 9 11 5 6 1017.0 1016.8 0.0
30/09:30pm 17.5 15.8 11.1 66 3.5 E 11 13 6 7 1017.0 1016.8 0.0
30/09:00pm 18.0 15.9 11.1 64 3.8 E 13 13 7 7 1017.0 1016.8 0.0
30/08:30pm 18.0 16.0 11.6 66 3.5 ENE 13 13 7 7 1016.7 1016.5 0.0
30/08:00pm 18.5 17.2 11.3 63 4.0 E 9 11 5 6 1016.3 1016.1 0.0
30/07:30pm 19.1 17.8 11.4 61 4.2 ESE 9 9 5 5 1016.2 1016.0 0.0
30/07:00pm 20.0 18.2 10.7 55 5.1 SE 11 13 6 7 1015.8 1015.6 0.0
30/06:30pm 20.9 19.6 10.1 50 5.9 WSW 7 9 4 5 1015.5 1015.3 0.0
30/06:00pm 21.5 19.4 9.7 47 6.4 SSW 11 15 6 8 1015.0 1014.8 0.0
30/05:30pm 21.6 18.7 9.5 46 6.5 WSW 15 20 8 11 1014.8 1014.6 0.0
30/05:00pm 22.0 19.1 9.5 45 6.8 WSW 15 20 8 11 1014.7 1014.5 0.0
30/04:30pm 22.2 19.3 9.7 45 6.8 SW 15 20 8 11 1014.7 1014.5 0.0
30/04:00pm 22.1 19.2 9.6 45 6.8 SSW 15 22 8 12 1014.6 1014.4 0.0
30/03:30pm 22.9 18.3 9.7 43 7.2 SW 24 33 13 18 1014.8 1014.6 0.0
30/03:00pm 22.3 17.9 9.1 43 7.1 SSW 22 32 12 17 1014.8 1014.6 0.0
30/02:30pm 22.2 18.7 8.7 42 7.2 SW 17 28 9 15 1014.7 1014.5 0.0
30/02:00pm 21.6 17.6 9.2 45 6.7 SSW 20 28 11 15 1014.8 1014.6 0.0
30/01:30pm 21.2 16.3 8.5 44 6.7 SW 24 33 13 18 1015.2 1015.0 0.0
30/01:00pm 21.2 16.4 8.8 45 6.6 SW 24 35 13 19 1015.3 1015.1 0.0
30/12:30pm 20.6 17.7 9.8 50 5.8 SW 15 20 8 11 1015.7 1015.5 0.0
30/12:00pm 19.6 16.4 8.3 48 5.9 WSW 15 22 8 12 1016.0 1015.8 0.0
30/11:30am 18.8 16.2 9.3 54 5.0 WSW 13 20 7 11 1016.4 1016.2 0.0
30/11:00am 17.9 15.6 10.3 61 4.1 W 13 19 7 10 1016.6 1016.4 0.0
30/10:30am 16.5 13.9 9.4 63 3.7 WSW 13 19 7 10 1016.8 1016.6 0.0
30/10:00am 15.9 13.8 9.8 67 3.2 WSW 11 15 6 8 1016.6 1016.4 0.0
30/09:30am 14.9 13.2 9.9 72 2.6 W 9 13 5 7 1016.8 1016.6 0.0
30/09:00am 13.8 12.5 10.0 78 2.0 WSW 7 11 4 6 1016.6 1016.4 1.6
30/08:30am 13.1 11.9 10.3 83 1.5 WSW 7 11 4 6 1016.3 1016.1 1.6
30/08:00am 11.8 10.6 10.2 90 0.8 WSW 7 9 4 5 1016.1 1015.9 1.6
30/07:30am 10.9 9.7 10.3 96 0.3 W 7 9 4 5 1015.8 1015.6 1.6
30/07:00am 9.7 8.5 9.6 99 0.1 WNW 6 6 3 3 1015.0 1014.8 1.6
30/06:30am 8.8 6.4 8.7 99 0.0 WSW 11 13 6 7 1015.1 1014.9 1.6
30/06:00am 8.5 6.0 8.4 99 0.0 WSW 11 11 6 6 1015.2 1015.0 1.6
30/05:30am 9.1 6.4 9.0 99 0.0 WSW 13 15 7 8 1015.1 1014.9 1.6
30/05:00am 9.3 6.7 9.2 99 0.0 WSW 13 15 7 8 1014.7 1014.5 1.6
30/04:30am 9.4 6.4 9.3 99 0.0 WSW 15 17 8 9 1014.4 1014.2 1.6
30/04:00am 9.7 6.8 9.6 99 0.1 WSW 15 15 8 8 1014.3 1014.1 1.6
30/03:30am 10.1 7.3 10.0 99 0.1 WSW 15 19 8 10 1014.6 1014.4 1.6
30/03:00am 10.3 7.1 10.1 99 0.1 WSW 17 19 9 10 1014.8 1014.6 1.6
30/02:30am 10.5 7.4 10.3 99 0.1 WSW 17 20 9 11 1014.8 1014.6 1.4
30/02:00am 10.2 7.8 10.1 99 0.1 W 13 15 7 8 1015.1 1014.9 1.4
30/01:30am 10.5 8.1 10.2 98 0.2 W 13 15 7 8 1015.1 1014.9 1.4
30/01:00am 10.8 8.9 10.5 98 0.2 WSW 11 15 6 8 1015.4 1015.2 1.4
30/12:30am 11.2 9.1 11.0 99 0.1 WSW 13 15 7 8 1015.6 1015.4 1.4
30/12:00am 11.6 9.5 11.1 97 0.3 SW 13 15 7 8 1015.2 1015.0 1.4
 
Date/Time
CST
Temp
°C
App
Temp
°C
Dew
Point
°C
Rel
Hum
%
Delta-T
°C
Wind Press
QNH
hPa
Press
MSL
hPa
Rain since
9am
mm
Dir  Spd
km/h
Gust
km/h
Spd
kts
Gust
kts
29/11:30pm 11.8 10.1 11.3 97 0.3 WSW 11 13 6 7 1015.2 1015.0 1.4
29/11:00pm 12.3 10.7 11.4 94 0.5 WSW 11 13 6 7 1015.3 1015.1 1.4
29/10:30pm 12.9 11.2 11.1 89 1.0 W 11 13 6 7 1015.5 1015.3 1.4
29/10:00pm 13.4 12.2 11.5 88 1.0 WSW 9 9 5 5 1015.4 1015.2 1.4
29/09:30pm 14.1 13.1 11.1 82 1.6 W 7 9 4 5 1015.4 1015.2 1.4
29/09:00pm 14.6 13.9 11.4 81 1.7 W 6 9 3 5 1015.2 1015.0 1.4
29/08:30pm 15.1 14.0 10.1 72 2.6 SW 6 7 3 4 1015.0 1014.8 1.4
29/08:00pm 15.5 15.7 10.5 72 2.7 CALM 0 0 0 0 1014.7 1014.5 1.4
29/07:30pm 15.7 16.1 11.1 74 2.5 CALM 0 0 0 0 1014.3 1014.1 1.4
29/07:00pm 16.0 15.2 11.0 72 2.7 SW 6 6 3 3 1013.9 1013.7 1.4
29/06:30pm 16.4 15.2 11.6 73 2.6 WSW 9 11 5 6 1013.7 1013.5 1.4
29/06:00pm 17.7 15.4 10.6 63 3.8 W 13 15 7 8 1013.3 1013.1 1.4
29/05:30pm 18.6 16.5 9.9 57 4.7 NW 11 15 6 8 1013.2 1013.0 1.2
29/05:00pm 17.9 16.2 10.0 60 4.2 NW 9 13 5 7 1012.7 1012.4 1.2
29/04:30pm 17.9 16.7 10.3 61 4.1 WNW 7 11 4 6 1012.6 1012.3 1.2
29/04:00pm 17.8 16.4 9.4 58 4.4 NW 7 15 4 8 1012.7 1012.4 1.2
29/03:30pm 17.6 15.6 10.2 62 4.0 NNW 11 15 6 8 1013.1 1012.8 1.2
29/03:00pm 17.3 14.9 10.2 63 3.8 N 13 17 7 9 1012.9 1012.6 1.2
29/02:30pm 16.3 14.5 12.1 76 2.3 NNE 13 20 7 11 1013.5 1013.3 1.2
29/02:00pm 15.8 12.8 11.8 77 2.2 NE 19 24 10 13 1013.9 1013.7 1.2
29/01:30pm 15.7 12.7 11.9 78 2.1 ENE 19 24 10 13 1014.4 1014.2 1.0
29/01:00pm 15.7 12.2 12.1 79 2.0 ENE 22 28 12 15 1014.6 1014.4 1.0
29/12:30pm 15.1 10.8 12.2 83 1.6 ENE 26 32 14 17 1015.4 1015.2 1.0
29/12:00pm 14.8 11.3 12.1 84 1.5 E 22 28 12 15 1015.6 1015.4 1.0
29/11:30am 14.3 11.2 12.2 87 1.1 ENE 20 24 11 13 1016.7 1016.5 1.0
29/11:00am 13.8 10.8 11.8 88 1.1 ENE 19 20 10 11 1017.5 1017.2 0.8
29/10:30am 14.0 11.5 12.2 89 1.0 NE 17 20 9 11 1018.2 1017.9 0.4
29/10:00am 13.6 11.0 12.0 90 0.9 NE 17 24 9 13 1018.2 1017.9 0.2
29/09:30am 13.4 10.2 11.8 90 0.9 NE 20 32 11 17 1017.7 1017.4 0.0
29/09:00am 13.4 9.9 12.3 93 0.6 ESE 22 32 12 17 1016.8 1016.6 3.4
29/08:30am 13.1 12.3 11.7 91 0.8 W 7 11 4 6 1018.6 1018.4 3.2
29/08:00am 13.0 11.0 11.4 90 0.9 WNW 13 19 7 10 1018.4 1018.2 2.8
29/07:30am 12.8 10.3 11.0 89 0.9 WNW 15 20 8 11 1018.0 1017.7 2.4
29/07:00am 12.5 9.4 10.2 86 1.2 NW 17 24 9 13 1017.6 1017.3 1.6
29/06:30am 12.9 6.6 8.8 76 2.1 NNW 32 39 17 21 1017.5 1017.2 0.2
29/06:00am 16.0 8.8 3.1 42 5.9 N 30 35 16 19 1016.6 1016.4 0.0
29/05:30am 16.6 10.1 0.3 33 7.1 NNE 24 30 13 16 1016.0 1015.8 0.0
29/05:00am 16.4 10.3 0.1 33 7.1 NE 22 26 12 14 1015.9 1015.7 0.0
29/04:30am 16.3 10.1 0.0 33 7.0 NE 22 26 12 14 1015.7 1015.5 0.0
29/04:00am 16.4 9.9 0.1 33 7.1 NE 24 30 13 16 1015.6 1015.4 0.0
29/03:30am 16.3 10.5 0.0 33 7.0 NE 20 24 11 13 1015.8 1015.6 0.0
29/03:00am 16.5 10.9 -0.2 32 7.2 NE 19 24 10 13 1016.2 1016.0 0.0
29/02:30am 16.7 10.9 -0.1 32 7.2 NE 20 26 11 14 1016.5 1016.3 0.0
29/02:00am 17.0 10.0 -0.2 31 7.4 NE 26 32 14 17 1016.6 1016.4 0.0
29/01:30am 16.6 10.0 -0.1 32 7.2 ENE 24 28 13 15 1016.5 1016.3 0.0
29/01:00am 16.4 10.8 -0.3 32 7.2 NE 19 22 10 12 1017.2 1017.0 0.0
29/12:30am 16.8 11.1 -0.4 31 7.4 NE 19 20 10 11 1017.8 1017.5 0.0
29/12:00am 17.2 11.9 -0.5 30 7.6 NE 17 20 9 11 1018.1 1017.8 0.0
 
Date/Time
CST
Temp
°C
App
Temp
°C
Dew
Point
°C
Rel
Hum
%
Delta-T
°C
Wind Press
QNH
hPa
Press
MSL
hPa
Rain since
9am
mm
Dir  Spd
km/h
Gust
km/h
Spd
kts
Gust
kts
28/11:30pm 17.8 11.9 -0.9 28 8.0 NE 20 26 11 14 1018.0 1017.7 0.0
28/11:00pm 18.1 11.4 -1.2 27 8.3 NE 24 30 13 16 1017.8 1017.5 0.0
28/10:30pm 18.7 11.2 -1.2 26 8.5 NE 28 33 15 18 1017.8 1017.5 0.0
28/10:00pm 18.7 12.0 -1.2 26 8.6 NE 24 30 13 16 1017.8 1017.5 0.0
28/09:30pm 19.1 12.4 -0.8 26 8.6 NE 24 30 13 16 1018.1 1017.8 0.0
28/09:00pm 19.2 12.6 -0.7 26 8.7 NE 24 30 13 16 1017.8 1017.5 0.0
28/08:30pm 19.5 12.4 -1.0 25 8.9 NE 26 30 14 16 1017.7 1017.4 0.0
28/08:00pm 19.8 13.5 -1.3 24 9.1 NE 22 26 12 14 1017.6 1017.3 0.0
28/07:30pm 20.3 13.9 -1.5 23 9.4 NE 22 24 12 13 1017.5 1017.2 0.0
28/07:00pm 21.0 14.6 -1.5 22 9.8 NE 22 26 12 14 1017.4 1017.1 0.0
28/06:30pm 21.7 14.5 -2.2 20 10.3 NE 26 35 14 19 1017.2 1017.0 0.0
28/06:00pm 22.6 14.1 -2.9 18 11.0 NNE 32 41 17 22 1016.9 1016.7 0.0
28/05:30pm 23.5 14.5 -2.9 17 11.4 NE 35 44 19 24 1016.7 1016.5 0.0
28/05:00pm 24.1 15.1 -2.4 17 11.7 NNE 35 41 19 22 1016.8 1016.6 0.0
28/04:30pm 24.3 14.9 -3.1 16 11.9 NNE 37 54 20 29 1016.8 1016.6 0.0
28/04:00pm 24.5 15.5 -2.9 16 12.0 NNE 35 48 19 26 1016.9 1016.7 0.0
28/03:30pm 24.9 15.6 -1.8 17 11.9 NNE 37 46 20 25 1017.1 1016.9 0.0
28/03:00pm 24.4 15.5 -2.2 17 11.8 NNE 35 46 19 25 1017.6 1017.3 0.0

Other formats

Comma delimited format used in spreadsheet applications
http://www.bom.gov.au/fwo/IDS60801/IDS60801.94659.axf

JavaScript Object Notation format (JSON) in row-major order
http://www.bom.gov.au/fwo/IDS60801/IDS60801.94659.json

Data quality

Most of these data are generated automatically and are frequently updated. Quality checks on data are not normally performed. It is possible for incorrect values to appear. Refer to information at About Latest Weather Observations and please check the disclaimer before using these data.